createdAt,value
2019-03-06T00:02:26.403Z,9.80
2019-03-06T00:04:56.767Z,10.03
2019-03-06T00:07:27.308Z,9.20
2019-03-06T00:09:57.667Z,9.97
2019-03-06T00:12:28.141Z,10.57
2019-03-06T00:14:58.566Z,10.03
2019-03-06T00:17:29.054Z,10.77
2019-03-06T00:19:59.474Z,9.93
2019-03-06T00:22:29.881Z,11.17
2019-03-06T00:25:00.332Z,10.83
2019-03-06T00:27:30.811Z,11.20
2019-03-06T00:30:01.248Z,11.63
2019-03-06T00:32:31.729Z,12.43
2019-03-06T00:35:04.083Z,13.40
2019-03-06T00:37:54.690Z,12.40
2019-03-06T00:40:26.526Z,13.43
2019-03-06T00:42:57.025Z,13.80
2019-03-06T00:45:27.410Z,13.37
2019-03-06T00:47:57.879Z,14.37
2019-03-06T00:50:28.303Z,14.97
2019-03-06T00:52:58.758Z,15.67
2019-03-06T00:55:29.181Z,14.67
2019-03-06T00:57:59.564Z,15.03
2019-03-06T01:00:30.097Z,15.03
2019-03-06T01:03:00.726Z,15.80
2019-03-06T01:05:31.121Z,16.83
2019-03-06T01:08:01.589Z,15.50
2019-03-06T01:10:32.025Z,17.00
2019-03-06T01:13:02.515Z,16.77
2019-03-06T01:15:32.932Z,16.17
2019-03-06T01:18:03.413Z,18.17
2019-03-06T01:20:33.879Z,18.13
2019-03-06T01:23:04.327Z,17.27
2019-03-06T01:25:34.874Z,18.43
2019-03-06T01:28:05.345Z,16.83
2019-03-06T01:30:35.800Z,17.07
2019-03-06T01:33:25.933Z,17.23
2019-03-06T01:36:01.000Z,18.30
2019-03-06T01:38:39.099Z,15.87
2019-03-06T01:41:11.117Z,17.63
2019-03-06T01:43:46.150Z,17.27
2019-03-06T01:46:16.583Z,18.23
2019-03-06T01:48:47.082Z,16.90
2019-03-06T01:51:17.519Z,17.13
2019-03-06T01:53:48.026Z,16.17
2019-03-06T01:56:18.482Z,15.20
2019-03-06T01:58:48.977Z,15.70
2019-03-06T02:01:19.419Z,15.07
2019-03-06T02:03:50.984Z,14.90
2019-03-06T02:06:21.593Z,15.00
2019-03-06T02:08:52.072Z,14.73
2019-03-06T02:11:22.511Z,15.40
2019-03-06T02:13:53.020Z,14.97
2019-03-06T02:16:23.445Z,14.43
2019-03-06T02:18:53.956Z,13.90
2019-03-06T02:21:24.382Z,13.30
2019-03-06T02:23:54.868Z,12.00
2019-03-06T02:26:26.791Z,12.27
2019-03-06T02:28:57.276Z,13.50
2019-03-06T02:31:27.726Z,12.97
2019-03-06T02:33:58.216Z,13.23
2019-03-06T02:36:28.643Z,13.13
2019-03-06T02:38:59.122Z,12.20
2019-03-06T02:41:29.558Z,13.20
2019-03-06T02:44:00.058Z,12.97
2019-03-06T02:46:30.515Z,13.03
2019-03-06T02:49:01.003Z,13.07
2019-03-06T02:51:31.721Z,13.50
2019-03-06T02:54:02.279Z,12.57
2019-03-06T02:56:32.688Z,12.67
2019-03-06T02:59:04.742Z,12.63
2019-03-06T03:01:52.910Z,13.23
2019-03-06T03:04:34.765Z,13.53
2019-03-06T03:07:06.768Z,11.17
2019-03-06T03:09:37.331Z,12.27
2019-03-06T03:12:07.754Z,12.93
2019-03-06T03:14:38.247Z,12.90
2019-03-06T03:17:08.676Z,12.03
2019-03-06T03:19:39.157Z,12.53
2019-03-06T03:22:09.585Z,14.00
2019-03-06T03:24:40.043Z,14.53
2019-03-06T03:27:10.493Z,14.10
2019-03-06T03:29:40.972Z,14.60
2019-03-06T03:32:11.440Z,13.03
2019-03-06T03:34:42.001Z,13.40
2019-03-06T03:37:12.467Z,14.03
2019-03-06T03:39:42.948Z,15.00
2019-03-06T03:42:13.402Z,14.90
2019-03-06T03:44:43.949Z,15.77
2019-03-06T03:47:14.385Z,14.57
2019-03-06T03:49:44.888Z,14.90
2019-03-06T03:52:15.336Z,16.07
2019-03-06T03:54:45.830Z,16.33
2019-03-06T03:57:16.460Z,16.10
2019-03-06T03:59:46.966Z,14.97
2019-03-06T04:02:17.424Z,15.90
2019-03-06T04:04:48.875Z,15.77
2019-03-06T04:07:19.332Z,16.73
2019-03-06T04:09:49.831Z,16.90
2019-03-06T04:12:20.279Z,15.80
2019-03-06T04:14:50.787Z,17.50
2019-03-06T04:17:21.236Z,15.03
2019-03-06T04:19:51.718Z,15.40
2019-03-06T04:22:22.170Z,15.20
2019-03-06T04:24:52.671Z,15.20
2019-03-06T04:27:23.112Z,15.47
2019-03-06T04:29:53.582Z,13.47
2019-03-06T04:32:24.362Z,13.70
2019-03-06T04:34:54.822Z,14.27
2019-03-06T04:37:25.223Z,13.53
2019-03-06T04:39:55.688Z,13.77
2019-03-06T04:42:26.100Z,12.87
2019-03-06T04:44:56.588Z,14.77
2019-03-06T04:47:27.008Z,12.73
2019-03-06T04:49:57.481Z,12.73
2019-03-06T04:52:27.899Z,13.27
2019-03-06T04:54:58.819Z,12.33
2019-03-06T04:57:29.242Z,12.07
2019-03-06T04:59:59.701Z,12.93
2019-03-06T05:02:30.116Z,12.13
2019-03-06T05:05:01.542Z,14.47
2019-03-06T05:07:31.981Z,12.17
2019-03-06T05:10:02.447Z,11.87
2019-03-06T05:12:32.855Z,12.63
2019-03-06T05:15:03.373Z,12.23
2019-03-06T05:17:41.675Z,11.90
2019-03-06T05:20:12.161Z,12.27
2019-03-06T05:22:42.566Z,11.40
2019-03-06T05:25:13.045Z,13.10
2019-03-06T05:27:43.466Z,11.97
2019-03-06T05:30:15.521Z,11.30
2019-03-06T05:32:48.228Z,12.27
2019-03-06T05:35:24.326Z,14.43
2019-03-06T05:38:04.397Z,11.57
2019-03-06T05:40:34.909Z,12.40
2019-03-06T05:43:05.415Z,11.90
2019-03-06T05:45:35.890Z,11.70
2019-03-06T05:48:06.470Z,12.47
2019-03-06T05:50:36.960Z,12.03
2019-03-06T05:53:07.387Z,10.93
2019-03-06T05:55:37.857Z,12.30
2019-03-06T05:58:08.297Z,11.17
2019-03-06T06:00:38.766Z,10.97
2019-03-06T06:03:09.176Z,11.47
2019-03-06T06:05:40.714Z,11.33
2019-03-06T06:08:11.183Z,11.13
2019-03-06T06:10:41.656Z,11.80
2019-03-06T06:13:12.137Z,11.10
2019-03-06T06:15:42.648Z,10.53
2019-03-06T06:18:13.086Z,10.50
2019-03-06T06:20:43.840Z,9.40
2019-03-06T06:23:15.832Z,9.50
2019-03-06T06:25:46.291Z,9.43
2019-03-06T06:28:16.740Z,9.60
2019-03-06T06:30:47.204Z,10.40
2019-03-06T06:33:17.632Z,10.80
2019-03-06T06:35:48.130Z,11.37
2019-03-06T06:38:18.560Z,8.93
2019-03-06T06:40:49.020Z,11.20
2019-03-06T06:43:19.690Z,11.33
2019-03-06T06:45:50.186Z,10.33
2019-03-06T06:48:22.704Z,10.20
2019-03-06T06:51:07.919Z,11.20
2019-03-06T06:53:47.447Z,11.60
2019-03-06T06:56:38.789Z,16.00
2019-03-06T06:59:27.378Z,14.87
2019-03-06T07:02:14.460Z,11.40
2019-03-06T07:05:11.739Z,11.47
2019-03-06T07:07:49.970Z,14.60
2019-03-06T07:10:38.560Z,12.10
2019-03-06T07:13:16.593Z,12.17
2019-03-06T07:15:48.606Z,15.23
2019-03-06T07:18:20.682Z,14.80
2019-03-06T07:21:10.754Z,10.90
2019-03-06T07:23:51.977Z,12.80
2019-03-06T07:26:40.091Z,10.83
2019-03-06T07:29:12.110Z,11.00
2019-03-06T07:31:50.175Z,10.23
2019-03-06T07:34:38.474Z,14.67
2019-03-06T07:37:10.502Z,10.83
2019-03-06T07:39:42.542Z,12.00
2019-03-06T07:42:26.427Z,11.73
2019-03-06T07:45:32.952Z,10.20
2019-03-06T07:48:07.650Z,15.17
2019-03-06T07:50:39.703Z,9.63
2019-03-06T07:53:49.102Z,14.60
2019-03-06T07:56:21.765Z,11.13
2019-03-06T07:58:57.032Z,12.27
2019-03-06T08:01:30.420Z,10.00
2019-03-06T08:04:12.198Z,11.73
2019-03-06T08:06:44.261Z,14.83
2019-03-06T08:09:19.343Z,12.57
2019-03-06T08:12:00.567Z,10.10
2019-03-06T08:14:32.552Z,10.83
2019-03-06T08:17:04.621Z,11.67
2019-03-06T08:19:52.759Z,11.43
2019-03-06T08:22:24.819Z,13.00
2019-03-06T08:25:13.273Z,11.43
2019-03-06T08:27:43.766Z,11.20
2019-03-06T08:30:14.426Z,11.77
2019-03-06T08:32:44.940Z,10.30
2019-03-06T08:35:15.377Z,13.33
2019-03-06T08:37:45.985Z,11.20
2019-03-06T08:40:16.488Z,11.03
2019-03-06T08:42:46.983Z,11.83
2019-03-06T08:45:35.283Z,12.63
2019-03-06T08:48:22.439Z,10.50
2019-03-06T08:51:10.958Z,10.73
2019-03-06T08:53:45.752Z,10.73
2019-03-06T08:56:17.746Z,10.60
2019-03-06T08:58:59.054Z,10.77
2019-03-06T09:01:46.558Z,10.30
2019-03-06T09:04:33.885Z,9.60
2019-03-06T09:07:14.946Z,10.37
2019-03-06T09:09:53.530Z,9.23
2019-03-06T09:12:28.211Z,10.53
2019-03-06T09:15:06.993Z,9.77
2019-03-06T09:17:45.057Z,9.53
2019-03-06T09:20:19.871Z,11.37
2019-03-06T09:22:54.931Z,10.07
2019-03-06T09:25:30.873Z,10.43
2019-03-06T09:28:12.022Z,8.93
2019-03-06T09:30:47.376Z,14.70
2019-03-06T09:33:28.749Z,8.67
2019-03-06T09:36:19.680Z,8.77
2019-03-06T09:38:58.645Z,9.10
2019-03-06T09:41:45.735Z,9.80
2019-03-06T09:44:30.972Z,8.70
2019-03-06T09:47:15.693Z,7.03
2019-03-06T09:49:56.787Z,7.20
2019-03-06T09:52:44.009Z,7.80
2019-03-06T09:55:18.685Z,7.70
2019-03-06T09:57:53.791Z,8.03
2019-03-06T10:00:32.865Z,8.37
2019-03-06T10:03:11.953Z,11.07
2019-03-06T10:05:47.114Z,8.40
2019-03-06T10:08:21.831Z,9.43
2019-03-06T10:10:58.138Z,7.83
2019-03-06T10:13:30.351Z,6.87
2019-03-06T10:16:17.280Z,6.10
2019-03-06T10:18:49.441Z,7.10
2019-03-06T10:21:19.859Z,6.20
2019-03-06T10:23:50.318Z,8.00
2019-03-06T10:26:20.999Z,8.37
2019-03-06T10:28:51.574Z,11.00
2019-03-06T10:31:22.193Z,9.80
2019-03-06T10:33:52.650Z,6.90
2019-03-06T10:36:23.080Z,8.37
2019-03-06T10:38:55.141Z,8.67
2019-03-06T10:41:25.828Z,8.57
2019-03-06T10:43:56.304Z,10.60
2019-03-06T10:46:28.245Z,7.10
2019-03-06T10:48:58.751Z,7.40
2019-03-06T10:51:31.005Z,10.30
2019-03-06T10:54:01.368Z,8.30
2019-03-06T10:56:31.902Z,8.73
2019-03-06T10:59:02.658Z,7.87
2019-03-06T11:01:33.198Z,7.20
2019-03-06T11:04:05.456Z,8.70
2019-03-06T11:06:35.997Z,7.67
2019-03-06T11:09:09.524Z,6.07
2019-03-06T11:11:43.545Z,5.50
2019-03-06T11:14:13.999Z,7.70
2019-03-06T11:16:48.222Z,7.13
2019-03-06T11:19:18.729Z,5.43
2019-03-06T11:21:49.181Z,6.90
2019-03-06T11:26:51.609Z,9.58
2019-03-06T11:29:22.056Z,10.00
2019-03-06T11:31:53.998Z,8.77
2019-03-06T11:34:24.615Z,6.40
2019-03-06T11:36:55.361Z,4.23
2019-03-06T11:39:26.064Z,6.40
2019-03-06T11:41:56.652Z,5.30
2019-03-06T11:44:27.079Z,4.53
2019-03-06T11:46:57.554Z,4.90
2019-03-06T11:49:30.012Z,4.12
2019-03-06T11:52:00.443Z,5.08
2019-03-06T11:54:30.893Z,3.65
2019-03-06T11:57:01.342Z,4.40
2019-03-06T11:59:31.749Z,5.78
2019-03-06T12:02:02.740Z,4.03
2019-03-06T12:04:33.223Z,3.85
2019-03-06T12:07:05.027Z,4.00
2019-03-06T12:09:35.609Z,4.08
2019-03-06T12:12:07.285Z,5.42
2019-03-06T12:14:37.898Z,7.62
2019-03-06T12:17:08.354Z,4.15
2019-03-06T12:19:39.863Z,3.30
2019-03-06T12:22:10.868Z,3.42
2019-03-06T12:24:52.786Z,4.20
2019-03-06T12:27:23.255Z,3.92
2019-03-06T12:29:53.844Z,5.42
2019-03-06T12:32:24.313Z,5.90
2019-03-06T12:34:54.902Z,5.60
2019-03-06T12:37:25.436Z,3.90
2019-03-06T12:39:55.977Z,4.85
2019-03-06T12:42:26.736Z,7.47
2019-03-06T12:44:57.095Z,7.70
2019-03-06T12:47:27.714Z,10.38
2019-03-06T12:50:05.411Z,6.80
2019-03-06T12:52:43.537Z,5.53
2019-03-06T12:55:16.644Z,7.15
2019-03-06T12:57:47.144Z,4.40
2019-03-06T13:00:27.633Z,5.40
2019-03-06T13:02:58.456Z,5.62
2019-03-06T13:05:29.051Z,6.50
2019-03-06T13:07:59.672Z,5.53
2019-03-06T13:10:30.492Z,5.17
2019-03-06T13:13:01.953Z,4.97
2019-03-06T13:15:32.902Z,4.40
2019-03-06T13:18:03.564Z,5.03
2019-03-06T13:20:35.013Z,4.57
2019-03-06T13:23:05.891Z,3.70
2019-03-06T13:25:36.327Z,10.03
2019-03-06T13:28:06.892Z,9.90
2019-03-06T13:30:37.824Z,7.60
2019-03-06T13:33:15.688Z,9.17
2019-03-06T13:35:46.240Z,6.30
2019-03-06T13:38:16.773Z,5.77
2019-03-06T13:40:47.399Z,5.17
2019-03-06T13:43:17.976Z,5.83
2019-03-06T13:45:49.857Z,5.30
2019-03-06T13:48:20.334Z,4.73
2019-03-06T13:50:51.128Z,5.67
2019-03-06T13:53:21.870Z,4.73
2019-03-06T13:55:52.317Z,5.10
2019-03-06T13:58:24.318Z,5.40
2019-03-06T14:00:54.760Z,6.10
2019-03-06T14:03:25.310Z,4.87
2019-03-06T14:05:56.807Z,5.23
2019-03-06T14:08:27.486Z,5.33
2019-03-06T14:10:57.927Z,5.30
2019-03-06T14:13:30.389Z,6.47
2019-03-06T14:16:00.894Z,7.20
2019-03-06T14:18:31.372Z,78.93
2019-03-06T14:21:01.768Z,5.93
2019-03-06T14:23:35.215Z,5.17
2019-03-06T14:26:08.695Z,5.70
2019-03-06T14:28:39.164Z,6.37
2019-03-06T14:31:10.971Z,6.30
2019-03-06T14:33:41.446Z,6.83
2019-03-06T14:36:11.966Z,6.93
2019-03-06T14:38:42.459Z,8.10
2019-03-06T14:41:12.875Z,5.50
2019-03-06T14:43:43.436Z,12.43
2019-03-06T14:46:17.054Z,10.30
2019-03-06T14:48:48.167Z,9.53
2019-03-06T14:51:18.505Z,10.13
2019-03-06T14:53:48.979Z,9.90
2019-03-06T14:56:19.496Z,9.97
2019-03-06T14:58:54.098Z,8.70
2019-03-06T15:01:25.378Z,10.50
2019-03-06T15:03:57.494Z,6.43
2019-03-06T15:06:27.958Z,8.60
2019-03-06T15:08:58.553Z,6.93
2019-03-06T15:11:33.293Z,7.90
2019-03-06T15:14:04.996Z,7.23
2019-03-06T15:16:55.124Z,10.70
2019-03-06T15:19:27.000Z,9.47
2019-03-06T15:21:58.786Z,10.13
2019-03-06T15:24:29.323Z,9.63
2019-03-06T15:26:59.958Z,9.73
2019-03-06T15:29:30.430Z,10.70
2019-03-06T15:32:03.605Z,9.47
2019-03-06T15:34:34.070Z,10.77
2019-03-06T15:37:04.509Z,11.23
2019-03-06T15:39:44.528Z,13.10
2019-03-06T15:42:09.570Z,12.87
2019-03-06T15:44:40.529Z,14.87
2019-03-06T15:47:12.189Z,15.47
2019-03-06T15:49:42.991Z,15.33
2019-03-06T15:52:15.083Z,17.20
2019-03-06T15:54:45.649Z,16.97
2019-03-06T15:57:16.652Z,20.40
2019-03-06T15:59:47.362Z,19.13
2019-03-06T16:02:17.812Z,20.43
2019-03-06T16:04:48.365Z,21.57
2019-03-06T16:10:27.622Z,18.63
2019-03-06T16:13:01.066Z,17.30
2019-03-06T16:15:32.700Z,18.77
2019-03-06T16:18:05.219Z,22.80
2019-03-06T16:20:35.814Z,18.40
2019-03-06T16:23:06.235Z,18.43
2019-03-06T16:25:39.910Z,16.77
2019-03-06T16:28:08.818Z,17.83
2019-03-06T16:30:40.238Z,18.13
2019-03-06T16:33:10.683Z,17.77
2019-03-06T16:35:41.133Z,19.23
2019-03-06T16:38:11.555Z,18.67
2019-03-06T16:40:42.191Z,20.10
2019-03-06T16:43:12.926Z,17.75
2019-03-06T16:45:43.485Z,19.90
2019-03-06T16:48:13.949Z,19.53
2019-03-06T16:50:44.596Z,15.70
2019-03-06T16:53:15.422Z,15.20
2019-03-06T16:55:45.916Z,12.50
2019-03-06T16:58:16.373Z,13.47
2019-03-06T17:00:47.359Z,14.80
2019-03-06T17:03:17.749Z,17.60
2019-03-06T17:05:48.751Z,20.40
2019-03-06T17:08:20.427Z,25.80
2019-03-06T17:10:50.943Z,28.30
2019-03-06T17:13:21.421Z,24.47
2019-03-06T17:15:53.795Z,22.57
2019-03-06T17:18:24.454Z,26.60
2019-03-06T17:20:55.089Z,23.27
2019-03-06T17:23:25.576Z,25.23
2019-03-06T17:25:56.101Z,28.53
2019-03-06T17:28:26.564Z,28.07
2019-03-06T17:30:57.147Z,26.87
2019-03-06T17:33:27.623Z,26.90
2019-03-06T17:35:58.137Z,29.20
2019-03-06T17:38:28.701Z,25.80
2019-03-06T17:40:59.173Z,24.70
2019-03-06T17:43:30.811Z,30.07
2019-03-06T17:46:01.399Z,27.13
2019-03-06T17:48:31.977Z,30.17
2019-03-06T17:51:02.481Z,29.67
2019-03-06T17:53:32.962Z,29.30
2019-03-06T17:56:03.512Z,30.03
2019-03-06T17:58:33.980Z,30.83
2019-03-06T18:01:06.099Z,34.57
2019-03-06T18:03:38.100Z,34.77
2019-03-06T18:06:08.660Z,35.10
2019-03-06T18:08:39.318Z,47.80
2019-03-06T18:11:09.940Z,81.20
2019-03-06T18:13:40.397Z,92.87
2019-03-06T18:16:11.091Z,106.47
2019-03-06T18:18:41.571Z,99.00
2019-03-06T18:21:12.528Z,78.10
2019-03-06T18:23:43.007Z,54.13
2019-03-06T18:26:13.501Z,53.23
2019-03-06T18:28:44.056Z,54.50
2019-03-06T18:31:15.027Z,58.73
2019-03-06T18:33:45.646Z,50.37
2019-03-06T18:36:16.166Z,51.43
2019-03-06T18:38:46.612Z,46.17
2019-03-06T18:41:17.096Z,48.17
2019-03-06T18:43:47.571Z,46.50
2019-03-06T18:46:18.079Z,45.00
2019-03-06T18:48:48.797Z,46.23
2019-03-06T18:51:19.341Z,47.53
2019-03-06T18:53:49.808Z,50.57
2019-03-06T18:56:20.299Z,48.97
2019-03-06T18:58:50.764Z,47.73
2019-03-06T19:01:21.284Z,44.07
2019-03-06T19:03:51.759Z,45.83
2019-03-06T19:06:22.291Z,44.53
2019-03-06T19:08:52.745Z,41.90
2019-03-06T19:11:23.232Z,40.30
2019-03-06T19:13:53.679Z,37.10
2019-03-06T19:16:25.431Z,32.57
2019-03-06T19:18:55.900Z,26.77
2019-03-06T19:21:26.397Z,24.90
2019-03-06T19:23:56.861Z,23.57
2019-03-06T19:26:27.349Z,20.53
2019-03-06T19:28:57.902Z,19.43
2019-03-06T19:31:28.396Z,20.97
2019-03-06T19:33:58.850Z,20.17
2019-03-06T19:36:29.383Z,21.27
2019-03-06T19:38:59.890Z,22.70
2019-03-06T19:41:30.421Z,24.30
2019-03-06T19:44:01.185Z,25.30
2019-03-06T19:46:31.686Z,26.17
2019-03-06T19:49:02.132Z,29.20
2019-03-06T19:51:32.651Z,29.63
2019-03-06T19:54:03.123Z,30.07
2019-03-06T19:56:33.897Z,30.30
2019-03-06T19:59:04.388Z,28.90
2019-03-06T20:01:34.944Z,27.57
2019-03-06T20:04:05.565Z,24.17
2019-03-06T20:06:36.064Z,20.03
2019-03-06T20:09:09.426Z,19.73
2019-03-06T20:11:39.938Z,15.80
2019-03-06T20:14:10.383Z,15.03
2019-03-06T20:16:41.881Z,15.10
2019-03-06T20:19:12.335Z,13.53
2019-03-06T20:21:42.806Z,14.27
2019-03-06T20:24:13.452Z,13.90
2019-03-06T20:26:44.169Z,14.10
2019-03-06T20:29:14.762Z,15.43
2019-03-06T20:31:45.275Z,14.30
2019-03-06T20:34:15.723Z,13.60
2019-03-06T20:36:46.219Z,13.90
2019-03-06T20:39:16.672Z,14.37
2019-03-06T20:41:48.404Z,15.23
2019-03-06T20:44:20.353Z,15.00
2019-03-06T20:46:50.850Z,15.60
2019-03-06T20:49:21.297Z,15.10
2019-03-06T20:51:51.961Z,15.40
2019-03-06T20:54:22.412Z,15.53
2019-03-06T20:56:52.905Z,15.43
2019-03-06T20:59:23.376Z,16.50
2019-03-06T21:01:53.859Z,14.77
2019-03-06T21:04:24.303Z,15.27
2019-03-06T21:06:54.814Z,15.27
2019-03-06T21:09:25.268Z,16.60
2019-03-06T21:11:55.740Z,14.93
2019-03-06T21:14:26.201Z,15.63
2019-03-06T21:16:57.667Z,17.43
2019-03-06T21:19:28.111Z,16.20
2019-03-06T21:21:58.595Z,18.30
2019-03-06T21:24:29.224Z,17.07
2019-03-06T21:26:59.725Z,20.53
2019-03-06T21:29:30.169Z,20.13
2019-03-06T21:32:00.695Z,19.90
2019-03-06T21:34:31.164Z,17.47
2019-03-06T21:37:01.662Z,17.77
2019-03-06T21:39:32.135Z,18.17
2019-03-06T21:42:02.675Z,16.13
2019-03-06T21:44:33.148Z,15.37
2019-03-06T21:47:03.681Z,15.60
2019-03-06T21:49:34.125Z,15.23
2019-03-06T21:52:04.905Z,14.60
2019-03-06T21:54:35.396Z,14.57
2019-03-06T21:57:05.933Z,14.37
2019-03-06T21:59:36.371Z,15.43
2019-03-06T22:02:06.884Z,11.40
2019-03-06T22:04:37.322Z,12.23
2019-03-06T22:07:07.851Z,12.37
2019-03-06T22:09:38.320Z,12.80
2019-03-06T22:12:08.819Z,13.67
2019-03-06T22:14:39.272Z,13.73
2019-03-06T22:17:10.779Z,12.00
2019-03-06T22:19:41.257Z,13.27
2019-03-06T22:22:11.746Z,14.40
2019-03-06T22:24:42.722Z,13.87
2019-03-06T22:27:13.207Z,13.93
2019-03-06T22:29:43.665Z,15.57
2019-03-06T22:32:14.331Z,11.83
2019-03-06T22:34:44.804Z,10.23
2019-03-06T22:37:15.289Z,10.27
2019-03-06T22:39:45.745Z,10.83
2019-03-06T22:42:16.218Z,14.00
2019-03-06T22:44:46.692Z,13.33
2019-03-06T22:47:17.210Z,13.43
2019-03-06T22:49:47.656Z,14.20
2019-03-06T22:52:18.159Z,12.67
2019-03-06T22:54:48.618Z,13.70
2019-03-06T22:57:19.140Z,11.47
2019-03-06T22:59:49.583Z,11.07
2019-03-06T23:02:21.961Z,9.60
2019-03-06T23:04:52.413Z,10.13
2019-03-06T23:07:22.907Z,11.20
2019-03-06T23:09:53.333Z,11.30
2019-03-06T23:12:23.833Z,10.60
2019-03-06T23:14:54.291Z,10.73
2019-03-06T23:17:25.761Z,11.40
2019-03-06T23:19:56.225Z,10.60
2019-03-06T23:22:26.809Z,11.17
2019-03-06T23:24:57.269Z,9.47
2019-03-06T23:27:27.734Z,9.97
2019-03-06T23:29:58.168Z,8.73
2019-03-06T23:32:28.660Z,9.47
2019-03-06T23:34:59.097Z,9.00
2019-03-06T23:37:29.583Z,8.53
2019-03-06T23:40:00.051Z,8.63
2019-03-06T23:42:30.536Z,8.47
2019-03-06T23:45:00.970Z,8.60
2019-03-06T23:47:31.463Z,7.97
2019-03-06T23:50:02.096Z,8.07
2019-03-06T23:52:34.156Z,8.53
2019-03-06T23:55:04.699Z,7.60
2019-03-06T23:57:35.311Z,8.50
